This is the latest recevied weather packets stored in our database for station/object N0LTM. If no packets are shown the sender has not sent any weather packets the latest 10 day(s).
| Time | Temp. | Humidity | Pressure | Rain* | Wind** | Luminosity | Snow |
|---|---|---|---|---|---|---|---|
| 1778070053 | 4.44° C | 84% | 1013.2 hPa | 0 mm | - | - | - |
| 1778067052 | 1.11° C | 85% | 1012.9 hPa | 0 mm | - | - | - |
| 1778065854 | 0.56° C | 84% | 1012.7 hPa | 0 mm | - | - | - |
| 1778064656 | 0.56° C | 83% | 1012.8 hPa | 0 mm | - | - | - |
| 1778063456 | 1.11° C | 81% | 1012.4 hPa | 0 mm | - | - | - |
| 1778062557 | 1.67° C | 80% | 1012.1 hPa | 0 mm | - | - | - |
| 1778062254 | 1.67° C | 80% | 1012.2 hPa | 0 mm | - | - | - |
| 1778061656 | 1.67° C | 79% | 1012.1 hPa | 0 mm | - | - | - |
| 1778058657 | 2.22° C | 73% | 1012 hPa | 0 mm | - | - | - |
| 1778058356 | 2.22° C | 72% | 1011.9 hPa | 0 mm | - | - | - |
| 1778057752 | 2.22° C | 71% | 1012.2 hPa | 0 mm | - | - | - |
| 1778057452 | 2.22° C | 71% | 1012.1 hPa | 0 mm | - | - | - |
| 1778056556 | 2.22° C | 69% | 1012 hPa | 0 mm | - | - | - |
| 1778056260 | 2.22° C | 68% | 1012.1 hPa | 0 mm | - | - | - |
| 1778055655 | 2.78° C | 67% | 1012.1 hPa | 0 mm | - | - | - |
| 1778054753 | 3.33° C | 65% | 1011.8 hPa | 0 mm | - | - | - |
| 1778052353 | 4.44° C | 58% | 1011.7 hPa | 0 mm | - | - | - |
| 1778051455 | 5.56° C | 55% | 1011.5 hPa | 0 mm | - | - | - |
| 1778049352 | 6.67° C | 50% | 1011.6 hPa | 0 mm | - | - | - |
| 1778047855 | 7.22° C | 48% | 1011.7 hPa | 0 mm | - | - | - |
| 1778046952 | 7.22° C | 48% | 1011.5 hPa | 0 mm | - | - | - |
| 1778043664 | 7.22° C | 48% | 1011.3 hPa | 0 mm | - | - | - |
| 1778042452 | 7.78° C | 49% | 1011.2 hPa | 0 mm | - | - | - |
| 1778040054 | 8.89° C | 43% | 1011 hPa | 0 mm | - | - | - |
| 1778039174 | 9.44° C | 42% | 1011 hPa | 0 mm | - | - | - |
* Rain latest hour (hover to see other rain measurements)
** Current wind speed in m/s (hover to see current wind gust speed)